Time;durP1;ratioP1;P1;durP2;ratioP2;P2;SDS_P1;SDS_P2;PMS_P1;PMS_P2;Temp;Humidity;BMP_temperature;BMP_pressure;BME280_temperature;BME280_humidity;BME280_pressure;Samples;Min_cycle;Max_cycle;Signal;HPM_P1;HPM_P2
2022/01/16 00:04:11;;;;;;;127.60;36.97;;;;;;;;;;4935875;29;20102;-79
2022/01/16 00:06:38;;;;;;;136.98;39.13;;;;;;;;;;4917147;29;20134;-79
2022/01/16 00:09:05;;;;;;;128.60;37.90;;;;;;;;;;4920357;29;20085;-78
2022/01/16 00:11:31;;;;;;;119.15;37.00;;;;;;;;;;4915219;29;20128;-80
2022/01/16 00:13:57;;;;;;;107.45;34.30;;;;;;;;;;4935282;29;20395;-80
2022/01/16 00:16:24;;;;;;;120.97;36.70;;;;;;;;;;4933336;29;20538;-80
2022/01/16 00:18:50;;;;;;;119.32;36.30;;;;;;;;;;4921274;29;20047;-79
2022/01/16 00:21:20;;;;;;;118.25;36.05;;;;;;;;;;4937084;29;20047;-79
2022/01/16 00:23:46;;;;;;;123.72;38.25;;;;;;;;;;4934752;29;20047;-79
2022/01/16 00:26:12;;;;;;;107.57;36.03;;;;;;;;;;4934552;29;20106;-79
2022/01/16 00:28:39;;;;;;;110.90;36.25;;;;;;;;;;4913997;29;20044;-79
2022/01/16 00:31:05;;;;;;;145.63;39.97;;;;;;;;;;4934467;29;20130;-80
2022/01/16 00:33:31;;;;;;;129.77;39.85;;;;;;;;;;4916722;29;20082;-80
2022/01/16 00:35:57;;;;;;;132.80;40.45;;;;;;;;;;4915670;29;20051;-78
2022/01/16 00:38:23;;;;;;;132.48;40.35;;;;;;;;;;4916104;29;20079;-78
2022/01/16 00:40:49;;;;;;;132.35;39.40;;;;;;;;;;4930628;29;20059;-77
2022/01/16 00:43:15;;;;;;;160.32;41.75;;;;;;;;;;4918259;29;20141;-77
2022/01/16 00:45:41;;;;;;;144.88;44.03;;;;;;;;;;4917665;29;20047;-78
2022/01/16 00:48:08;;;;;;;122.40;42.17;;;;;;;;;;4919387;29;20518;-78
2022/01/16 00:50:35;;;;;;;141.60;45.40;;;;;;;;;;4921644;29;20051;-79
2022/01/16 00:53:02;;;;;;;135.27;44.80;;;;;;;;;;4914730;29;20190;-79
2022/01/16 00:55:28;;;;;;;148.85;46.15;;;;;;;;;;4931926;29;20054;-78
2022/01/16 00:57:54;;;;;;;127.68;43.00;;;;;;;;;;4919090;29;20055;-78
2022/01/16 01:00:20;;;;;;;119.95;42.92;;;;;;;;;;4920701;29;20082;-79
2022/01/16 01:02:47;;;;;;;118.82;43.35;;;;;;;;;;4936542;29;20051;-78
2022/01/16 01:05:13;;;;;;;111.22;42.58;;;;;;;;;;4934185;29;20047;-78
2022/01/16 01:07:39;;;;;;;101.80;40.88;;;;;;;;;;4928109;29;20047;-78
2022/01/16 01:10:06;;;;;;;114.25;43.00;;;;;;;;;;4901084;29;20047;-78
2022/01/16 01:12:52;;;;;;;116.47;45.10;;;;;;;;;;4936144;29;20129;-77
2022/01/16 01:15:20;;;;;;;111.30;43.63;;;;;;;;;;4909071;29;20055;-78
2022/01/16 01:17:47;;;;;;;123.40;43.35;;;;;;;;;;4929931;29;20051;-77
2022/01/16 01:20:16;;;;;;;112.32;42.45;;;;;;;;;;4903064;29;20054;-77
2022/01/16 01:22:43;;;;;;;117.75;44.42;;;;;;;;;;4916044;29;20051;-78
2022/01/16 01:25:12;;;;;;;113.57;42.60;;;;;;;;;;4913716;29;20106;-77
2022/01/16 01:27:38;;;;;;;124.68;45.30;;;;;;;;;;4920596;29;20125;-77
2022/01/16 01:30:07;;;;;;;127.38;45.25;;;;;;;;;;4918998;29;20126;-77
2022/01/16 01:32:36;;;;;;;115.55;44.28;;;;;;;;;;4900249;29;20071;-77
2022/01/16 01:35:02;;;;;;;116.28;46.20;;;;;;;;;;4915667;29;20130;-78
2022/01/16 01:37:28;;;;;;;126.55;45.35;;;;;;;;;;4932413;29;20039;-79
2022/01/16 01:39:54;;;;;;;131.20;45.05;;;;;;;;;;4942265;29;20055;-80
2022/01/16 01:42:21;;;;;;;132.20;46.58;;;;;;;;;;4934583;29;20083;-79
2022/01/16 01:53:00;;;;;;;142.38;46.33;;;;;;;;;;4933739;29;20058;-79
2022/01/16 01:55:27;;;;;;;142.77;46.92;;;;;;;;;;4941694;29;20085;-79
2022/01/16 01:57:53;;;;;;;151.23;49.05;;;;;;;;;;4927534;28;20055;-79
2022/01/16 02:00:20;;;;;;;155.52;46.75;;;;;;;;;;4919640;29;20117;-80
2022/01/16 02:05:19;;;;;;;154.43;47.08;;;;;;;;;;4933902;29;20376;-79
2022/01/16 02:07:46;;;;;;;171.02;49.28;;;;;;;;;;4929071;29;20559;-79
2022/01/16 02:10:12;;;;;;;161.98;49.30;;;;;;;;;;4933207;29;20050;-79
2022/01/16 02:12:43;;;;;;;154.27;46.67;;;;;;;;;;4900273;29;20086;-79
2022/01/16 02:15:36;;;;;;;186.35;50.45;;;;;;;;;;4931519;29;20100;-80
2022/01/16 02:31:40;;;;;;;215.90;52.17;;;;;;;;;;4926721;29;20063;-79
2022/01/16 02:36:56;;;;;;;200.05;50.95;;;;;;;;;;4911141;29;20063;-79
2022/01/16 02:39:25;;;;;;;206.48;50.45;;;;;;;;;;4909613;29;20122;-79
2022/01/16 02:41:53;;;;;;;208.75;50.30;;;;;;;;;;4926478;29;20093;-79
2022/01/16 02:44:29;;;;;;;252.88;54.30;;;;;;;;;;4923712;29;20063;-78
2022/01/16 02:46:56;;;;;;;244.82;54.90;;;;;;;;;;4932722;29;20566;-79
2022/01/16 02:49:30;;;;;;;173.73;47.00;;;;;;;;;;4933248;29;20040;-79
2022/01/16 02:51:57;;;;;;;216.27;50.10;;;;;;;;;;4926210;29;20055;-80
2022/01/16 02:54:24;;;;;;;208.40;50.40;;;;;;;;;;4915930;29;20070;-81
2022/01/16 02:56:51;;;;;;;215.27;51.00;;;;;;;;;;4924290;29;20492;-79
2022/01/16 02:59:18;;;;;;;226.30;51.88;;;;;;;;;;4927621;29;20093;-80
2022/01/16 03:01:44;;;;;;;232.77;49.67;;;;;;;;;;4918026;29;20081;-79
2022/01/16 03:04:10;;;;;;;198.30;50.63;;;;;;;;;;4907669;28;20048;-79
2022/01/16 03:06:36;;;;;;;233.63;52.55;;;;;;;;;;4928677;29;20069;-79
2022/01/16 03:09:06;;;;;;;212.75;50.53;;;;;;;;;;4932330;29;20061;-79
2022/01/16 03:11:36;;;;;;;191.80;49.55;;;;;;;;;;4927164;29;20058;-79
2022/01/16 03:14:03;;;;;;;190.30;50.70;;;;;;;;;;4917675;29;20039;-78
2022/01/16 03:16:29;;;;;;;200.20;49.10;;;;;;;;;;4931234;29;20499;-78
2022/01/16 03:21:53;;;;;;;192.38;48.78;;;;;;;;;;4948641;29;20047;-78
2022/01/16 03:24:21;;;;;;;212.50;48.38;;;;;;;;;;4928827;29;20052;-78
2022/01/16 03:26:47;;;;;;;171.48;47.88;;;;;;;;;;4913504;29;20753;-78
2022/01/16 03:29:13;;;;;;;196.80;48.60;;;;;;;;;;4927532;29;20130;-79
2022/01/16 03:31:39;;;;;;;191.20;47.80;;;;;;;;;;4924980;29;20078;-79
2022/01/16 03:34:05;;;;;;;220.07;52.05;;;;;;;;;;4919253;29;20431;-78
2022/01/16 03:36:31;;;;;;;198.82;49.92;;;;;;;;;;4912370;29;20056;-78
2022/01/16 03:38:57;;;;;;;178.68;48.25;;;;;;;;;;4936891;29;20043;-79
2022/01/16 03:41:27;;;;;;;214.95;51.08;;;;;;;;;;4921717;29;20380;-79
2022/01/16 03:43:54;;;;;;;202.65;51.08;;;;;;;;;;4914597;29;20093;-78
2022/01/16 03:46:20;;;;;;;219.75;54.78;;;;;;;;;;4935726;29;20090;-78
2022/01/16 03:48:46;;;;;;;213.77;49.97;;;;;;;;;;4922469;29;20043;-79
2022/01/16 03:51:12;;;;;;;238.55;52.72;;;;;;;;;;4931663;29;20043;-79
2022/01/16 03:53:38;;;;;;;232.57;53.00;;;;;;;;;;4929729;29;20043;-79
2022/01/16 03:56:04;;;;;;;238.00;54.25;;;;;;;;;;4929181;29;20051;-79
2022/01/16 03:58:30;;;;;;;253.32;53.60;;;;;;;;;;4935622;29;20117;-80
2022/01/16 04:00:57;;;;;;;245.88;53.88;;;;;;;;;;4927532;29;20055;-79
2022/01/16 04:03:23;;;;;;;257.02;57.10;;;;;;;;;;4933785;29;20486;-79
2022/01/16 04:05:49;;;;;;;226.50;53.63;;;;;;;;;;4935494;29;20054;-79
2022/01/16 04:08:15;;;;;;;249.30;56.47;;;;;;;;;;4926168;29;20558;-78
2022/01/16 04:10:41;;;;;;;235.50;56.60;;;;;;;;;;4930535;29;20086;-78
2022/01/16 04:13:08;;;;;;;260.48;56.53;;;;;;;;;;4923091;29;20134;-78
2022/01/16 04:15:34;;;;;;;250.15;56.53;;;;;;;;;;4926175;29;20054;-81
2022/01/16 04:18:01;;;;;;;256.33;57.70;;;;;;;;;;4929738;29;20044;-78
2022/01/16 04:20:27;;;;;;;253.88;56.17;;;;;;;;;;4923452;29;20138;-78
2022/01/16 04:22:53;;;;;;;264.67;57.38;;;;;;;;;;4936457;29;20051;-78
2022/01/16 04:25:19;;;;;;;253.30;56.10;;;;;;;;;;4920049;29;20102;-79
2022/01/16 04:27:46;;;;;;;248.85;56.38;;;;;;;;;;4920272;29;20055;-78
2022/01/16 04:30:12;;;;;;;238.38;58.85;;;;;;;;;;4937249;29;20120;-79
2022/01/16 04:32:38;;;;;;;252.15;56.55;;;;;;;;;;4905467;29;20039;-78
2022/01/16 04:35:05;;;;;;;258.98;60.03;;;;;;;;;;4896572;29;20055;-78
2022/01/16 04:37:32;;;;;;;270.77;59.47;;;;;;;;;;4931754;29;20047;-78
2022/01/16 04:40:02;;;;;;;270.67;59.63;;;;;;;;;;4917302;29;20062;-78
2022/01/16 04:45:14;;;;;;;284.30;60.13;;;;;;;;;;4927163;29;20098;-79
2022/01/16 04:47:40;;;;;;;254.00;58.50;;;;;;;;;;4911891;29;20055;-79
2022/01/16 04:50:07;;;;;;;266.60;58.28;;;;;;;;;;4930237;29;20058;-79
2022/01/16 04:52:33;;;;;;;295.30;61.08;;;;;;;;;;4928252;29;20126;-79
2022/01/16 04:55:00;;;;;;;255.27;63.35;;;;;;;;;;4911958;29;20047;-79
2022/01/16 04:57:26;;;;;;;280.48;60.90;;;;;;;;;;4892402;29;20060;-79
2022/01/16 04:59:52;;;;;;;293.48;62.85;;;;;;;;;;4929463;29;20059;-78
2022/01/16 05:02:18;;;;;;;282.75;60.80;;;;;;;;;;4897964;29;20047;-78
2022/01/16 05:04:44;;;;;;;276.98;61.35;;;;;;;;;;4920272;29;20058;-78
2022/01/16 05:07:10;;;;;;;271.55;58.42;;;;;;;;;;4919934;29;20467;-79
2022/01/16 05:09:36;;;;;;;265.45;60.80;;;;;;;;;;4901350;29;20040;-78
2022/01/16 05:12:08;;;;;;;285.58;64.47;;;;;;;;;;4914597;29;20047;-78
2022/01/16 05:17:19;;;;;;;304.63;63.47;;;;;;;;;;4918411;29;20050;-78
2022/01/16 05:19:45;;;;;;;297.77;60.53;;;;;;;;;;4933417;29;20059;-78
2022/01/16 05:22:11;;;;;;;322.65;63.55;;;;;;;;;;4904223;29;20114;-78
2022/01/16 05:24:37;;;;;;;315.52;67.15;;;;;;;;;;4912530;29;20522;-78
2022/01/16 05:27:05;;;;;;;311.00;63.05;;;;;;;;;;4929948;29;20407;-78
2022/01/16 05:29:31;;;;;;;317.30;64.32;;;;;;;;;;4932384;29;20478;-78
2022/01/16 05:31:57;;;;;;;346.85;70.45;;;;;;;;;;4916118;29;20057;-78
2022/01/16 05:34:25;;;;;;;308.58;65.30;;;;;;;;;;4919094;29;20047;-78
2022/01/16 05:36:52;;;;;;;341.65;70.68;;;;;;;;;;4926514;29;20121;-78
2022/01/16 05:39:19;;;;;;;339.70;67.30;;;;;;;;;;4915136;29;20044;-78
2022/01/16 05:41:45;;;;;;;343.67;68.53;;;;;;;;;;4920779;29;20055;-79
2022/01/16 05:44:11;;;;;;;342.00;69.07;;;;;;;;;;4913375;29;20410;-79
2022/01/16 05:46:37;;;;;;;333.73;67.47;;;;;;;;;;4911145;29;20472;-79
2022/01/16 05:49:04;;;;;;;312.88;66.53;;;;;;;;;;4923388;29;20039;-79
2022/01/16 05:51:30;;;;;;;312.83;66.45;;;;;;;;;;4911048;29;20058;-79
2022/01/16 05:53:57;;;;;;;326.63;67.68;;;;;;;;;;4923037;29;20550;-78
2022/01/16 05:56:23;;;;;;;323.70;70.07;;;;;;;;;;4924892;29;20080;-80
2022/01/16 05:58:49;;;;;;;310.17;68.30;;;;;;;;;;4906771;29;20059;-78
2022/01/16 06:01:15;;;;;;;331.98;70.63;;;;;;;;;;4928040;29;20043;-77
2022/01/16 06:03:42;;;;;;;318.63;68.95;;;;;;;;;;4921198;29;20391;-79
2022/01/16 06:06:09;;;;;;;295.45;66.70;;;;;;;;;;4908617;29;20051;-79
2022/01/16 06:08:38;;;;;;;303.85;68.38;;;;;;;;;;4925414;29;20436;-79
2022/01/16 06:11:04;;;;;;;306.77;68.22;;;;;;;;;;4916858;29;20050;-78
2022/01/16 06:13:30;;;;;;;328.58;69.68;;;;;;;;;;4919884;29;20053;-78
2022/01/16 06:15:56;;;;;;;311.08;69.95;;;;;;;;;;4920769;29;20043;-78
2022/01/16 06:18:22;;;;;;;299.55;65.63;;;;;;;;;;4905523;29;20134;-78
2022/01/16 06:20:49;;;;;;;307.85;68.38;;;;;;;;;;4912888;29;20051;-79
2022/01/16 06:23:16;;;;;;;321.70;70.90;;;;;;;;;;4919332;29;20488;-78
2022/01/16 06:25:42;;;;;;;314.08;69.93;;;;;;;;;;4905062;29;20055;-79
2022/01/16 06:28:08;;;;;;;252.68;67.10;;;;;;;;;;4907074;29;20427;-79
2022/01/16 06:30:35;;;;;;;304.60;72.32;;;;;;;;;;4906269;29;20151;-78
2022/01/16 06:33:03;;;;;;;282.75;69.47;;;;;;;;;;4923748;29;20051;-79
2022/01/16 06:35:29;;;;;;;292.88;71.43;;;;;;;;;;4920176;29;20055;-78
2022/01/16 06:37:56;;;;;;;303.63;74.30;;;;;;;;;;4926083;29;20043;-78
2022/01/16 06:40:22;;;;;;;283.70;70.50;;;;;;;;;;4919719;29;20074;-79
2022/01/16 06:42:48;;;;;;;297.92;69.05;;;;;;;;;;4909111;29;20063;-79
2022/01/16 06:45:14;;;;;;;271.85;68.03;;;;;;;;;;4905247;29;20494;-79
2022/01/16 06:47:40;;;;;;;301.80;71.32;;;;;;;;;;4912847;29;20160;-79
2022/01/16 06:50:08;;;;;;;289.60;73.07;;;;;;;;;;4903282;29;20052;-80
2022/01/16 06:52:34;;;;;;;254.35;68.18;;;;;;;;;;4925488;29;20518;-79
2022/01/16 06:55:00;;;;;;;274.77;69.03;;;;;;;;;;4904082;29;20050;-79
2022/01/16 06:57:26;;;;;;;283.60;70.82;;;;;;;;;;4905078;29;20095;-80
2022/01/16 06:59:52;;;;;;;278.15;71.07;;;;;;;;;;4932697;29;20066;-79
2022/01/16 07:02:18;;;;;;;267.23;71.72;;;;;;;;;;4916417;29;20051;-77
2022/01/16 07:04:47;;;;;;;265.23;72.90;;;;;;;;;;4909855;29;20439;-79
2022/01/16 07:07:14;;;;;;;266.33;73.10;;;;;;;;;;4929742;29;20071;-80
2022/01/16 07:09:40;;;;;;;272.58;74.07;;;;;;;;;;4910562;29;20105;-83
2022/01/16 07:12:07;;;;;;;265.38;73.03;;;;;;;;;;4940720;28;20051;-79
2022/01/16 07:14:33;;;;;;;275.70;71.03;;;;;;;;;;4915733;29;20058;-79
2022/01/16 07:16:59;;;;;;;248.38;72.07;;;;;;;;;;4929371;29;20050;-77
2022/01/16 07:19:25;;;;;;;240.30;67.00;;;;;;;;;;4932896;29;20055;-77
2022/01/16 07:21:53;;;;;;;237.23;69.70;;;;;;;;;;4926060;29;20065;-78
2022/01/16 07:24:19;;;;;;;240.93;70.15;;;;;;;;;;4911096;29;20391;-78
2022/01/16 07:26:45;;;;;;;239.82;69.38;;;;;;;;;;4926550;29;20514;-77
2022/01/16 07:29:11;;;;;;;253.27;71.50;;;;;;;;;;4914033;29;20062;-77
2022/01/16 07:31:41;;;;;;;233.75;69.35;;;;;;;;;;4924231;29;20054;-78
2022/01/16 07:34:07;;;;;;;226.52;68.90;;;;;;;;;;4915273;29;20097;-76
2022/01/16 07:36:33;;;;;;;219.05;67.70;;;;;;;;;;4928268;29;20109;-77
2022/01/16 07:39:00;;;;;;;233.85;68.53;;;;;;;;;;4927792;29;20047;-78
2022/01/16 07:41:26;;;;;;;218.80;65.75;;;;;;;;;;4929578;28;20047;-78
2022/01/16 07:43:52;;;;;;;228.18;67.20;;;;;;;;;;4928833;29;20102;-78
2022/01/16 07:46:18;;;;;;;204.63;65.47;;;;;;;;;;4920174;29;20039;-79
2022/01/16 07:48:44;;;;;;;211.57;66.45;;;;;;;;;;4926241;28;20059;-81
2022/01/16 07:51:10;;;;;;;207.85;65.50;;;;;;;;;;4942867;29;20062;-83
2022/01/16 07:53:37;;;;;;;197.88;64.50;;;;;;;;;;4936728;28;20055;-83
2022/01/16 07:56:04;;;;;;;205.32;64.88;;;;;;;;;;4933762;28;20074;-86
2022/01/16 07:58:30;;;;;;;189.52;64.85;;;;;;;;;;4932532;29;20060;-82
2022/01/16 08:00:57;;;;;;;159.70;58.55;;;;;;;;;;4930380;28;20053;-81
2022/01/16 08:03:23;;;;;;;178.30;61.47;;;;;;;;;;4928310;29;20047;-81
2022/01/16 08:05:49;;;;;;;170.07;58.65;;;;;;;;;;4960198;28;20047;-80
2022/01/16 08:08:15;;;;;;;179.13;60.50;;;;;;;;;;4937837;29;20462;-83
2022/01/16 08:10:42;;;;;;;162.02;59.22;;;;;;;;;;4920667;29;20047;-80
2022/01/16 08:13:08;;;;;;;158.90;60.42;;;;;;;;;;4935139;29;20126;-82
2022/01/16 08:15:34;;;;;;;146.80;59.90;;;;;;;;;;4936146;29;20062;-82
2022/01/16 08:18:00;;;;;;;148.43;59.20;;;;;;;;;;4908559;28;20047;-87
2022/01/16 08:20:27;;;;;;;148.35;58.50;;;;;;;;;;4922071;29;20039;-86
2022/01/16 08:22:53;;;;;;;151.93;57.85;;;;;;;;;;4936065;29;20043;-79
2022/01/16 08:25:19;;;;;;;147.13;60.05;;;;;;;;;;4915751;29;20089;-79
2022/01/16 08:27:45;;;;;;;131.02;53.65;;;;;;;;;;4925446;29;20044;-80
2022/01/16 08:30:12;;;;;;;118.63;54.22;;;;;;;;;;4909122;29;20047;-80
2022/01/16 08:32:39;;;;;;;130.15;55.20;;;;;;;;;;4932028;29;20043;-80
2022/01/16 08:35:06;;;;;;;119.95;52.75;;;;;;;;;;4901524;29;20058;-80
2022/01/16 08:37:32;;;;;;;110.05;50.65;;;;;;;;;;4898793;29;20043;-80
2022/01/16 08:39:58;;;;;;;108.18;50.58;;;;;;;;;;4917681;29;20189;-80
2022/01/16 08:42:24;;;;;;;108.40;50.40;;;;;;;;;;4918533;29;20040;-80
2022/01/16 08:44:50;;;;;;;115.25;51.50;;;;;;;;;;4933118;29;20122;-85
2022/01/16 08:47:16;;;;;;;104.43;48.92;;;;;;;;;;4918440;29;20097;-83
2022/01/16 08:49:42;;;;;;;103.93;50.45;;;;;;;;;;4921407;29;20399;-89
2022/01/16 08:52:08;;;;;;;104.05;49.88;;;;;;;;;;4915502;29;20047;-89
2022/01/16 08:54:34;;;;;;;105.70;48.17;;;;;;;;;;4930647;29;20053;-86
2022/01/16 08:57:02;;;;;;;108.82;48.10;;;;;;;;;;4918275;29;20063;-89
2022/01/16 08:59:28;;;;;;;97.07;47.28;;;;;;;;;;4951412;29;20058;-83
2022/01/16 09:01:54;;;;;;;101.43;46.70;;;;;;;;;;4926498;29;20047;-82
2022/01/16 09:04:20;;;;;;;87.63;44.33;;;;;;;;;;4942645;28;20125;-82
2022/01/16 09:06:46;;;;;;;86.22;43.88;;;;;;;;;;4935671;29;20102;-83
2022/01/16 09:09:12;;;;;;;75.18;42.70;;;;;;;;;;4922014;29;20043;-82
2022/01/16 09:11:38;;;;;;;82.03;41.30;;;;;;;;;;4933709;29;20072;-81
2022/01/16 09:14:04;;;;;;;73.90;39.97;;;;;;;;;;4913301;29;20065;-79
2022/01/16 09:16:31;;;;;;;69.45;39.47;;;;;;;;;;4915304;29;20044;-82
2022/01/16 09:18:57;;;;;;;68.90;38.20;;;;;;;;;;4935335;29;20102;-82
2022/01/16 09:21:23;;;;;;;67.35;37.05;;;;;;;;;;4950512;29;20039;-81
2022/01/16 09:23:50;;;;;;;77.35;40.15;;;;;;;;;;4899907;29;20122;-80
2022/01/16 09:26:17;;;;;;;65.25;36.92;;;;;;;;;;4931286;29;20079;-85
2022/01/16 09:28:44;;;;;;;72.68;38.95;;;;;;;;;;4913459;29;20048;-79
2022/01/16 09:31:10;;;;;;;77.25;36.70;;;;;;;;;;4914800;29;20535;-82
2022/01/16 09:33:36;;;;;;;67.15;37.20;;;;;;;;;;4911918;29;20306;-84
2022/01/16 09:36:03;;;;;;;63.53;35.85;;;;;;;;;;4928435;29;20039;-85
2022/01/16 09:38:29;;;;;;;65.85;36.42;;;;;;;;;;4926900;29;20047;-84
2022/01/16 09:40:56;;;;;;;62.08;34.97;;;;;;;;;;4907495;29;20098;-80
2022/01/16 09:43:22;;;;;;;62.45;33.83;;;;;;;;;;4931965;29;20043;-82
2022/01/16 09:45:49;;;;;;;59.45;34.83;;;;;;;;;;4898478;29;20059;-81
2022/01/16 09:48:18;;;;;;;67.93;33.05;;;;;;;;;;4932885;29;20043;-82
2022/01/16 09:50:44;;;;;;;60.55;33.40;;;;;;;;;;4935647;29;20388;-85
2022/01/16 09:53:12;;;;;;;57.92;33.05;;;;;;;;;;4932545;29;20079;-84
2022/01/16 09:55:38;;;;;;;58.75;32.78;;;;;;;;;;4932604;29;20510;-79
2022/01/16 09:58:04;;;;;;;58.42;32.30;;;;;;;;;;4949983;29;20094;-79
2022/01/16 10:00:31;;;;;;;58.75;33.20;;;;;;;;;;4909765;29;20063;-79
2022/01/16 10:02:57;;;;;;;65.75;33.22;;;;;;;;;;4910738;29;20126;-79
2022/01/16 10:05:23;;;;;;;66.25;32.13;;;;;;;;;;4924867;29;20043;-80
2022/01/16 10:07:49;;;;;;;59.22;33.40;;;;;;;;;;4929652;29;20054;-79
2022/01/16 10:10:15;;;;;;;60.05;31.88;;;;;;;;;;4926542;29;20040;-80
2022/01/16 10:12:48;;;;;;;54.08;31.08;;;;;;;;;;4934924;29;20039;-82
2022/01/16 10:15:16;;;;;;;59.17;31.38;;;;;;;;;;4928259;29;20056;-83
2022/01/16 10:17:50;;;;;;;52.67;30.02;;;;;;;;;;4928847;29;20047;-83
2022/01/16 10:20:17;;;;;;;58.97;30.30;;;;;;;;;;4931627;29;20134;-80
2022/01/16 10:22:43;;;;;;;63.08;30.83;;;;;;;;;;4901053;29;20069;-86
2022/01/16 10:25:09;;;;;;;54.30;29.45;;;;;;;;;;4921096;29;20047;-81
2022/01/16 10:27:37;;;;;;;56.05;28.42;;;;;;;;;;4927505;29;20086;-80
2022/01/16 10:30:07;;;;;;;51.15;27.13;;;;;;;;;;4926576;29;20055;-81
2022/01/16 10:32:36;;;;;;;46.13;27.13;;;;;;;;;;4903217;29;20054;-82
2022/01/16 10:35:20;;;;;;;48.28;27.38;;;;;;;;;;4933329;29;20092;-85
2022/01/16 10:37:54;;;;;;;49.38;26.48;;;;;;;;;;4928247;29;20059;-83
2022/01/16 10:40:31;;;;;;;56.30;27.58;;;;;;;;;;4934221;29;20087;-87
2022/01/16 10:42:58;;;;;;;50.05;25.73;;;;;;;;;;4916233;29;20047;-86
2022/01/16 10:45:25;;;;;;;47.60;25.80;;;;;;;;;;4919873;29;20058;-85
2022/01/16 10:47:54;;;;;;;47.70;25.40;;;;;;;;;;4931929;29;20050;-83
2022/01/16 10:50:28;;;;;;;57.30;24.20;;;;;;;;;;4900301;29;20089;-83
2022/01/16 10:52:54;;;;;;;50.53;23.48;;;;;;;;;;4914879;29;20087;-84
2022/01/16 10:55:40;;;;;;;44.00;23.27;;;;;;;;;;4906668;29;20083;-86
2022/01/16 10:58:08;;;;;;;40.25;22.15;;;;;;;;;;4917207;29;20175;-84
2022/01/16 11:00:35;;;;;;;45.55;23.00;;;;;;;;;;4923368;29;20058;-85
2022/01/16 11:03:03;;;;;;;44.00;21.10;;;;;;;;;;4918869;29;20099;-78
2022/01/16 11:05:32;;;;;;;40.35;20.95;;;;;;;;;;4928406;29;20059;-83
2022/01/16 11:08:00;;;;;;;43.38;21.40;;;;;;;;;;4908726;29;20055;-84
2022/01/16 11:10:28;;;;;;;43.63;19.83;;;;;;;;;;4924723;29;20048;-79
2022/01/16 11:12:56;;;;;;;44.08;19.75;;;;;;;;;;4909878;29;20504;-88
2022/01/16 11:15:22;;;;;;;41.35;17.70;;;;;;;;;;4915031;29;20573;-83
2022/01/16 11:17:49;;;;;;;41.65;20.45;;;;;;;;;;4932655;29;20521;-85
2022/01/16 11:20:18;;;;;;;35.85;19.15;;;;;;;;;;4931309;29;20048;-83
2022/01/16 11:22:58;;;;;;;38.15;18.50;;;;;;;;;;4901234;29;20112;-82
2022/01/16 11:25:32;;;;;;;35.53;16.63;;;;;;;;;;4934426;29;20047;-79
2022/01/16 11:28:02;;;;;;;38.28;14.90;;;;;;;;;;4930146;29;20054;-77
2022/01/16 11:30:32;;;;;;;42.72;15.18;;;;;;;;;;4930416;29;20090;-79
2022/01/16 11:32:59;;;;;;;40.47;16.10;;;;;;;;;;4916355;29;20051;-79
2022/01/16 11:35:26;;;;;;;30.52;14.05;;;;;;;;;;4900370;29;20125;-80
2022/01/16 11:37:52;;;;;;;31.88;14.95;;;;;;;;;;4921211;29;20083;-79
2022/01/16 11:40:24;;;;;;;31.80;13.63;;;;;;;;;;4914783;29;20554;-83
2022/01/16 11:43:16;;;;;;;33.33;14.40;;;;;;;;;;4914359;29;20052;-85
2022/01/16 11:45:48;;;;;;;31.35;12.82;;;;;;;;;;4910937;29;20059;-89
2022/01/16 11:48:17;;;;;;;30.92;11.75;;;;;;;;;;4930652;29;20043;-84
2022/01/16 11:50:43;;;;;;;28.15;11.88;;;;;;;;;;4931845;29;20146;-87
2022/01/16 11:53:10;;;;;;;26.52;11.85;;;;;;;;;;4927417;29;20044;-89
2022/01/16 11:55:36;;;;;;;27.42;12.85;;;;;;;;;;4927981;29;20051;-84
2022/01/16 11:58:03;;;;;;;31.35;10.82;;;;;;;;;;4929918;29;20056;-83
2022/01/16 12:00:43;;;;;;;21.83;10.98;;;;;;;;;;4919163;29;20090;-84
2022/01/16 12:03:29;;;;;;;25.30;10.57;;;;;;;;;;4927258;29;20472;-80
2022/01/16 12:06:15;;;;;;;25.95;9.23;;;;;;;;;;4933789;29;20414;-84
2022/01/16 12:08:45;;;;;;;23.00;10.75;;;;;;;;;;4925123;29;20043;-82
2022/01/16 12:11:31;;;;;;;31.33;10.43;;;;;;;;;;4913127;29;20052;-83
2022/01/16 12:13:58;;;;;;;20.55;9.80;;;;;;;;;;4921869;29;20073;-82
2022/01/16 12:16:43;;;;;;;29.70;9.43;;;;;;;;;;4935704;29;20546;-84
2022/01/16 12:19:28;;;;;;;25.52;9.70;;;;;;;;;;4915616;29;20051;-82
2022/01/16 12:21:55;;;;;;;20.83;9.90;;;;;;;;;;4940102;29;20054;-90
2022/01/16 12:24:57;;;;;;;24.83;8.82;;;;;;;;;;4912141;29;20039;-89
2022/01/16 12:27:26;;;;;;;25.00;9.57;;;;;;;;;;4882024;29;20048;-92
2022/01/16 12:30:08;;;;;;;24.42;8.48;;;;;;;;;;4946463;28;20055;-90
2022/01/16 12:32:53;;;;;;;23.77;10.27;;;;;;;;;;4929079;29;20083;-88
2022/01/16 12:35:38;;;;;;;25.27;9.32;;;;;;;;;;4932094;29;20039;-83
2022/01/16 12:38:07;;;;;;;22.27;9.73;;;;;;;;;;4926129;28;20129;-83
2022/01/16 12:40:34;;;;;;;16.40;8.77;;;;;;;;;;4932594;29;20050;-86
2022/01/16 12:43:04;;;;;;;21.77;9.50;;;;;;;;;;4898222;29;20147;-83
2022/01/16 12:45:36;;;;;;;18.77;8.57;;;;;;;;;;4914295;29;20055;-85
2022/01/16 12:48:03;;;;;;;26.90;8.68;;;;;;;;;;4913151;29;20121;-80
2022/01/16 12:50:29;;;;;;;19.15;9.13;;;;;;;;;;4898625;28;20606;-77
2022/01/16 12:52:55;;;;;;;19.25;9.02;;;;;;;;;;4917027;29;20483;-80
2022/01/16 12:55:28;;;;;;;25.75;9.27;;;;;;;;;;4917234;29;20509;-80
2022/01/16 12:57:54;;;;;;;22.88;8.48;;;;;;;;;;4913618;29;20111;-82
2022/01/16 13:00:20;;;;;;;21.30;8.82;;;;;;;;;;4949999;29;20051;-84
2022/01/16 13:02:53;;;;;;;18.80;9.10;;;;;;;;;;4926122;28;20166;-79
2022/01/16 13:05:22;;;;;;;23.38;9.75;;;;;;;;;;4945997;28;20054;-76
2022/01/16 13:07:48;;;;;;;21.30;9.55;;;;;;;;;;4929728;29;20134;-85
2022/01/16 13:10:14;;;;;;;28.27;10.25;;;;;;;;;;4922341;29;20436;-84
2022/01/16 13:12:40;;;;;;;21.00;9.45;;;;;;;;;;4937525;29;20051;-79
2022/01/16 13:15:07;;;;;;;17.75;9.43;;;;;;;;;;4919533;29;20186;-76
2022/01/16 13:17:33;;;;;;;25.25;10.57;;;;;;;;;;4953381;29;20400;-73
2022/01/16 13:20:02;;;;;;;21.48;10.18;;;;;;;;;;4911465;29;20442;-73
2022/01/16 13:22:29;;;;;;;21.85;9.88;;;;;;;;;;4916520;29;20047;-78
2022/01/16 13:25:02;;;;;;;28.73;9.88;;;;;;;;;;4916314;29;20058;-74
2022/01/16 13:27:28;;;;;;;25.80;9.40;;;;;;;;;;4930613;29;20087;-77
2022/01/16 13:29:56;;;;;;;19.98;8.63;;;;;;;;;;4915688;29;20082;-77
2022/01/16 13:32:23;;;;;;;24.88;9.15;;;;;;;;;;4941680;29;20062;-77
2022/01/16 13:34:50;;;;;;;22.77;9.82;;;;;;;;;;4932868;29;20052;-77
2022/01/16 13:37:42;;;;;;;25.58;9.38;;;;;;;;;;4923720;29;20480;-77
2022/01/16 13:40:12;;;;;;;22.08;9.75;;;;;;;;;;4932156;29;20059;-77
2022/01/16 13:43:02;;;;;;;20.88;9.77;;;;;;;;;;4932198;29;20099;-76
2022/01/16 13:45:36;;;;;;;24.48;9.60;;;;;;;;;;4934389;29;20102;-77
2022/01/16 13:48:05;;;;;;;23.13;10.13;;;;;;;;;;4933190;29;20043;-78
2022/01/16 13:50:40;;;;;;;21.25;10.20;;;;;;;;;;4927381;29;20055;-77
2022/01/16 13:53:07;;;;;;;28.15;9.65;;;;;;;;;;4936878;29;20055;-74
2022/01/16 13:55:44;;;;;;;23.65;10.05;;;;;;;;;;4942936;29;20059;-78
2022/01/16 13:58:18;;;;;;;24.88;9.65;;;;;;;;;;4937327;29;20086;-79
2022/01/16 14:00:45;;;;;;;23.08;9.27;;;;;;;;;;4920491;29;20043;-79
2022/01/16 14:03:19;;;;;;;32.10;10.45;;;;;;;;;;4929878;29;20058;-78
2022/01/16 14:05:56;;;;;;;28.27;9.68;;;;;;;;;;4929267;29;20062;-79
2022/01/16 14:08:22;;;;;;;21.83;9.48;;;;;;;;;;4918530;29;20102;-78
2022/01/16 14:10:48;;;;;;;31.65;10.30;;;;;;;;;;4912862;29;20059;-80
2022/01/16 14:13:15;;;;;;;27.67;10.73;;;;;;;;;;4920093;29;20131;-78
2022/01/16 14:15:41;;;;;;;24.00;10.65;;;;;;;;;;4926170;28;20410;-77
2022/01/16 14:18:27;;;;;;;33.53;10.75;;;;;;;;;;4941096;29;20040;-79
2022/01/16 14:21:59;;;;;;;30.95;11.50;;;;;;;;;;4912611;29;20051;-77
2022/01/16 14:23:41;;;;;;;28.23;10.45;;;;;;;;;;4923468;29;20058;-76
2022/01/16 14:26:07;;;;;;;32.63;11.40;;;;;;;;;;4936020;29;20134;-77
2022/01/16 14:28:36;;;;;;;34.47;11.73;;;;;;;;;;4928550;29;20522;-76
2022/01/16 14:31:03;;;;;;;21.60;10.50;;;;;;;;;;4934365;29;20051;-77
2022/01/16 14:33:29;;;;;;;25.95;10.57;;;;;;;;;;4940730;29;20074;-76
2022/01/16 14:35:55;;;;;;;24.48;11.20;;;;;;;;;;4920145;29;20047;-76
2022/01/16 14:38:21;;;;;;;25.00;11.85;;;;;;;;;;4913934;29;20044;-78
2022/01/16 14:40:47;;;;;;;34.08;11.82;;;;;;;;;;4935381;29;20051;-78
2022/01/16 14:43:18;;;;;;;34.45;12.75;;;;;;;;;;4933547;29;20123;-78
2022/01/16 14:45:44;;;;;;;31.02;12.82;;;;;;;;;;4933069;29;20451;-77
2022/01/16 14:48:10;;;;;;;29.80;13.75;;;;;;;;;;4933057;29;20114;-79
2022/01/16 14:50:36;;;;;;;32.40;13.48;;;;;;;;;;4909910;29;20051;-77
2022/01/16 14:53:02;;;;;;;29.08;14.65;;;;;;;;;;4927293;29;20055;-83
2022/01/16 14:55:28;;;;;;;27.80;13.57;;;;;;;;;;4917739;29;20106;-79